Time;durP1;ratioP1;P1;durP2;ratioP2;P2;SDS_P1;SDS_P2;PMS_P1;PMS_P2;Temp;Humidity;BMP_temperature;BMP_pressure;BME280_temperature;BME280_humidity;BME280_pressure;Samples;Min_cycle;Max_cycle;Signal;HPM_P1;HPM_P2
2024/03/08 00:01:19;;;;;;;65.80;39.60;;;;;;;1.18;61.73;100970.48;103564;1253;96456;-79
2024/03/08 00:03:45;;;;;;;66.50;40.30;;;;;;;1.17;61.94;100972.33;103506;1255;110168;-80
2024/03/08 00:06:12;;;;;;;68.80;40.70;;;;;;;1.15;62.16;100972.65;103487;1254;138151;-79
2024/03/08 00:08:39;;;;;;;69.20;41.90;;;;;;;1.13;62.18;100973.30;103591;1254;96950;-79
2024/03/08 00:11:08;;;;;;;73.00;41.60;;;;;;;1.11;62.35;100965.89;103538;1256;139127;-79
2024/03/08 00:13:36;;;;;;;67.50;39.80;;;;;;;1.06;62.49;100967.52;103647;1255;96505;-79
2024/03/08 00:16:03;;;;;;;64.20;39.70;;;;;;;1.02;62.54;100967.27;103614;1256;109892;-80
2024/03/08 00:18:30;;;;;;;66.10;39.80;;;;;;;1.01;62.63;100963.31;103655;1254;138436;-79
2024/03/08 00:20:57;;;;;;;63.10;38.70;;;;;;;1.01;62.76;100970.15;102766;1254;1002639;-79
2024/03/08 00:23:24;;;;;;;70.80;40.20;;;;;;;1.02;62.97;100965.89;103412;1255;138534;-80
2024/03/08 00:25:51;;;;;;;66.60;40.40;;;;;;;1.04;62.99;100962.51;103529;1251;96512;-79
2024/03/08 00:28:18;;;;;;;68.80;40.60;;;;;;;1.05;63.16;100964.92;103600;1254;110766;-80
2024/03/08 00:30:46;;;;;;;68.80;41.20;;;;;;;1.07;63.21;100963.41;103470;1254;107366;-79
2024/03/08 00:33:13;;;;;;;70.30;42.30;;;;;;;1.04;63.11;100964.91;103606;1254;96721;-80
2024/03/08 00:35:40;;;;;;;68.10;41.70;;;;;;;1.01;63.31;100965.02;102660;1257;1015425;-79
2024/03/08 00:38:07;;;;;;;72.20;43.70;;;;;;;0.98;63.41;100963.95;102041;1254;1003247;-79
2024/03/08 00:40:34;;;;;;;71.40;43.00;;;;;;;0.95;63.70;100963.02;104013;1256;137948;-79
2024/03/08 00:43:03;;;;;;;74.50;42.90;;;;;;;0.92;63.52;100961.96;103419;1251;107971;-79
2024/03/08 00:45:30;;;;;;;67.20;40.70;;;;;;;0.90;63.87;100962.96;102936;1254;1003705;-80
2024/03/08 00:47:57;;;;;;;71.00;41.60;;;;;;;0.87;63.81;100960.65;103358;1254;139506;-81
2024/03/08 00:50:24;;;;;;;71.10;42.20;;;;;;;0.85;63.96;100960.96;103556;1254;96562;-81
2024/03/08 00:52:51;;;;;;;72.70;41.90;;;;;;;0.84;64.02;100959.56;103504;1254;138302;-80
2024/03/08 00:55:18;;;;;;;75.10;44.40;;;;;;;0.83;64.24;100959.90;103661;1254;108223;-80
2024/03/08 00:57:45;;;;;;;70.30;43.70;;;;;;;0.82;64.28;100956.80;103922;1254;96347;-80
2024/03/08 01:00:14;;;;;;;70.20;44.00;;;;;;;0.81;64.25;100955.92;104213;1254;138569;-80
2024/03/08 01:02:41;;;;;;;72.70;44.10;;;;;;;0.79;64.49;100954.00;103790;1256;96325;-80
2024/03/08 01:05:09;;;;;;;69.70;43.70;;;;;;;0.76;64.48;100951.39;102700;1251;1016190;-80
2024/03/08 01:07:36;;;;;;;73.80;42.90;;;;;;;0.73;64.32;100951.31;103968;1254;108973;-82
2024/03/08 01:10:03;;;;;;;69.00;43.50;;;;;;;0.69;64.65;100956.04;104016;1251;96459;-82
2024/03/08 01:12:30;;;;;;;74.40;43.10;;;;;;;0.67;64.81;100955.65;103662;1254;138605;-82
2024/03/08 01:14:58;;;;;;;69.10;42.80;;;;;;;0.63;64.88;100951.11;103537;1251;96453;-81
2024/03/08 01:17:25;;;;;;;65.30;39.60;;;;;;;0.61;65.06;100949.04;103694;1254;138066;-80
2024/03/08 01:19:53;;;;;;;68.20;41.40;;;;;;;0.59;65.14;100948.33;103551;1251;108375;-79
2024/03/08 01:22:20;;;;;;;68.20;41.00;;;;;;;0.58;65.04;100948.66;103809;1256;96757;-80
2024/03/08 01:24:47;;;;;;;69.20;42.00;;;;;;;0.58;65.24;100945.06;104731;1251;106065;-81
2024/03/08 01:27:14;;;;;;;67.50;41.30;;;;;;;0.59;65.35;100940.63;103944;1251;95171;-80
2024/03/08 01:29:41;;;;;;;69.40;41.00;;;;;;;0.60;65.34;100935.68;103321;1251;1003728;-80
2024/03/08 01:32:09;;;;;;;64.40;39.20;;;;;;;0.63;65.49;100934.86;104141;1251;107234;-79
2024/03/08 01:34:36;;;;;;;67.70;40.30;;;;;;;0.67;65.48;100933.39;103480;1254;138536;-80
2024/03/08 01:37:03;;;;;;;69.20;42.20;;;;;;;0.69;65.40;100933.09;103537;1251;107268;-80
2024/03/08 01:39:32;;;;;;;67.80;42.70;;;;;;;0.69;65.39;100935.66;103673;1254;96518;-80
2024/03/08 01:42:00;;;;;;;66.70;42.80;;;;;;;0.66;65.57;100930.81;104490;1251;138355;-80
2024/03/08 01:44:27;;;;;;;74.80;44.00;;;;;;;0.67;65.47;100931.17;104769;1251;106781;-78
2024/03/08 01:46:56;;;;;;;66.40;42.60;;;;;;;0.65;65.43;100932.16;104012;1252;138559;-79
2024/03/08 01:49:25;;;;;;;73.70;44.30;;;;;;;0.62;65.76;100930.92;104151;1251;107103;-79
2024/03/08 01:51:52;;;;;;;71.50;42.10;;;;;;;0.59;65.64;100930.36;103769;1251;1003282;-82
2024/03/08 01:54:21;;;;;;;69.10;40.80;;;;;;;0.58;65.70;100931.53;103351;1257;138536;-79
2024/03/08 01:56:49;;;;;;;64.10;39.60;;;;;;;0.56;65.82;100930.31;104293;1251;106664;-79
2024/03/08 01:59:16;;;;;;;72.60;41.70;;;;;;;0.56;65.86;100930.83;104052;1251;138276;-79
2024/03/08 02:01:44;;;;;;;67.90;40.30;;;;;;;0.55;65.78;100930.63;104179;1251;107683;-78
2024/03/08 02:04:11;;;;;;;69.20;41.40;;;;;;;0.54;65.78;100927.35;104036;1251;94697;-79
2024/03/08 02:06:39;;;;;;;65.80;40.80;;;;;;;0.54;65.82;100927.00;103923;1254;137988;-79
2024/03/08 02:09:06;;;;;;;66.30;40.80;;;;;;;0.54;66.01;100921.20;103708;1253;108453;-79
2024/03/08 02:11:35;;;;;;;67.50;41.30;;;;;;;0.56;65.93;100917.64;103327;1256;138507;-79
2024/03/08 02:14:06;;;;;;;69.70;40.30;;;;;;;0.56;66.09;100917.63;103599;1250;107600;-81
2024/03/08 02:16:33;;;;;;;71.80;42.00;;;;;;;0.55;66.10;100914.89;103825;1254;138408;-79
2024/03/08 02:19:00;;;;;;;65.50;41.20;;;;;;;0.53;66.18;100917.57;104465;1252;109361;-80
2024/03/08 02:21:28;;;;;;;67.10;41.70;;;;;;;0.53;66.16;100916.55;103576;1256;107656;-79
2024/03/08 02:23:55;;;;;;;72.10;41.00;;;;;;;0.53;66.21;100911.91;103599;1254;138373;-78
2024/03/08 02:26:22;;;;;;;66.60;41.60;;;;;;;0.52;66.29;100909.84;103498;1251;108621;-77
2024/03/08 02:28:50;;;;;;;64.30;40.80;;;;;;;0.51;66.26;100910.34;104420;1253;137916;-77
2024/03/08 02:31:17;;;;;;;71.40;43.10;;;;;;;0.51;66.32;100910.16;103574;1251;110685;-77
2024/03/08 02:33:44;;;;;;;69.40;42.40;;;;;;;0.49;66.28;100913.38;103021;1251;1002794;-81
2024/03/08 02:36:12;;;;;;;69.90;44.00;;;;;;;0.47;66.29;100913.16;103803;1253;137690;-81
2024/03/08 02:38:40;;;;;;;68.60;43.30;;;;;;;0.43;66.27;100910.38;103545;1251;106677;-81
2024/03/08 02:41:08;;;;;;;71.70;43.00;;;;;;;0.40;66.22;100910.81;103438;1254;138162;-80
2024/03/08 02:43:35;;;;;;;68.70;43.00;;;;;;;0.34;66.30;100908.13;103564;1251;109451;-81
2024/03/08 02:46:02;;;;;;;71.20;42.40;;;;;;;0.28;66.41;100908.18;103500;1255;107618;-79
2024/03/08 02:48:29;;;;;;;65.80;41.00;;;;;;;0.25;66.46;100909.66;103316;1251;138316;-81
2024/03/08 02:50:56;;;;;;;73.90;44.00;;;;;;;0.20;66.57;100908.36;103546;1253;107998;-81
2024/03/08 02:53:24;;;;;;;74.10;44.10;;;;;;;0.17;66.80;100907.92;103543;1253;138364;-82
2024/03/08 02:55:51;;;;;;;69.40;43.70;;;;;;;0.14;66.89;100910.45;103563;1253;109973;-81
2024/03/08 02:58:18;;;;;;;69.30;43.80;;;;;;;0.12;66.95;100906.30;103925;1250;107313;-82
2024/03/08 03:00:45;;;;;;;71.80;42.70;;;;;;;0.10;67.17;100904.22;103518;1254;138215;-81
2024/03/08 03:03:13;;;;;;;69.10;43.50;;;;;;;0.09;67.28;100903.68;103420;1253;109838;-81
2024/03/08 03:05:41;;;;;;;70.10;42.60;;;;;;;0.07;67.10;100902.95;103330;1254;138501;-80
2024/03/08 03:08:16;;;;;;;68.30;42.00;;;;;;;0.03;67.23;100896.55;103942;1253;110917;-81
2024/03/08 03:10:44;;;;;;;68.60;41.80;;;;;;;0.01;67.25;100899.23;103458;1252;139298;-81
2024/03/08 03:13:12;;;;;;;73.80;43.60;;;;;;;-0.04;67.32;100896.07;103482;1253;96484;-81
2024/03/08 03:15:41;;;;;;;69.20;43.10;;;;;;;-0.00;67.35;100902.81;103895;1252;107889;-80
2024/03/08 03:18:09;;;;;;;74.20;45.10;;;;;;;-0.00;67.37;100904.69;103423;1255;138488;-81
2024/03/08 03:20:40;;;;;;;69.40;43.20;;;;;;;-0.02;67.49;100902.42;103533;1253;110958;-81
2024/03/08 03:23:09;;;;;;;72.20;43.70;;;;;;;-0.05;67.50;100899.98;103400;1254;138583;-79
2024/03/08 03:25:38;;;;;;;71.80;43.50;;;;;;;-0.05;67.72;100898.95;103982;1252;96412;-78
2024/03/08 03:28:07;;;;;;;72.40;43.20;;;;;;;-0.06;67.66;100905.76;103491;1250;108753;-80
2024/03/08 03:30:34;;;;;;;73.90;44.10;;;;;;;-0.10;67.72;100904.15;103141;1253;1003070;-79
2024/03/08 03:33:02;;;;;;;71.20;43.80;;;;;;;-0.09;68.02;100905.02;103528;1252;110612;-77
2024/03/08 03:35:30;;;;;;;76.10;44.50;;;;;;;-0.09;67.92;100898.52;103669;1251;138906;-78
2024/03/08 03:38:06;;;;;;;73.50;43.90;;;;;;;-0.09;68.29;100898.17;103457;1254;96362;-78
2024/03/08 03:40:35;;;;;;;76.10;43.10;;;;;;;-0.08;68.24;100901.45;103451;1251;139641;-77
2024/03/08 03:43:03;;;;;;;69.30;43.60;;;;;;;-0.07;68.59;100902.84;103419;1251;95659;-79
2024/03/08 03:45:34;;;;;;;73.80;44.40;;;;;;;-0.07;68.56;100898.39;104234;1251;109910;-79
2024/03/08 03:48:04;;;;;;;75.70;45.10;;;;;;;-0.09;68.38;100895.45;104658;1252;138529;-77
2024/03/08 03:50:34;;;;;;;76.10;45.20;;;;;;;-0.12;68.55;100894.36;104544;1254;96733;-79
2024/03/08 03:53:03;;;;;;;70.90;45.60;;;;;;;-0.14;68.46;100890.74;103425;1253;138394;-79
2024/03/08 03:55:30;;;;;;;76.20;45.30;;;;;;;-0.16;68.57;100890.70;104140;1251;96458;-80
2024/03/08 03:57:58;;;;;;;78.20;45.80;;;;;;;-0.17;68.75;100890.16;103979;1252;110937;-79
2024/03/08 04:00:26;;;;;;;78.80;46.30;;;;;;;-0.17;68.82;100888.63;103623;1251;138426;-79
2024/03/08 04:02:54;;;;;;;79.30;46.30;;;;;;;-0.18;68.82;100887.75;102925;1251;1003373;-79
2024/03/08 04:05:22;;;;;;;72.90;45.80;;;;;;;-0.21;68.82;100882.36;102759;1253;1003165;-79
2024/03/08 04:07:49;;;;;;;79.00;46.20;;;;;;;-0.21;68.63;100888.33;103972;1252;96328;-80
2024/03/08 04:10:15;;;;;;;76.70;44.40;;;;;;;-0.26;68.81;100885.50;103571;1253;109580;-78
2024/03/08 04:12:42;;;;;;;75.40;44.60;;;;;;;-0.28;69.00;100885.30;103350;1253;138404;-80
2024/03/08 04:15:11;;;;;;;76.60;46.90;;;;;;;-0.28;69.12;100884.09;103600;1253;96463;-79
2024/03/08 04:17:39;;;;;;;78.40;46.20;;;;;;;-0.26;69.04;100881.57;104392;1252;138391;-78
2024/03/08 04:20:09;;;;;;;72.50;44.90;;;;;;;-0.28;69.17;100881.88;103525;1254;96453;-81
2024/03/08 04:22:36;;;;;;;83.70;49.70;;;;;;;-0.29;69.49;100880.65;103847;1251;139722;-82
2024/03/08 04:25:03;;;;;;;78.60;47.00;;;;;;;-0.28;69.49;100880.52;103445;1251;108122;-81
2024/03/08 04:27:32;;;;;;;83.40;47.10;;;;;;;-0.27;69.33;100884.80;103746;1251;96746;-82
2024/03/08 04:30:00;;;;;;;79.90;47.80;;;;;;;-0.30;69.44;100877.04;103408;1251;138965;-79
2024/03/08 04:32:29;;;;;;;84.60;51.50;;;;;;;-0.30;69.48;100883.20;103524;1253;96530;-78
2024/03/08 04:34:56;;;;;;;89.30;52.20;;;;;;;-0.32;69.59;100881.46;103761;1253;139260;-78
2024/03/08 04:37:24;;;;;;;84.90;49.40;;;;;;;-0.32;69.42;100879.73;104065;1253;108042;-78
2024/03/08 04:39:52;;;;;;;83.80;50.40;;;;;;;-0.33;69.63;100881.42;103978;1253;95005;-78
2024/03/08 04:42:19;;;;;;;75.70;46.00;;;;;;;-0.35;69.54;100875.77;103630;1253;138382;-80
2024/03/08 04:44:47;;;;;;;83.50;50.30;;;;;;;-0.36;69.61;100875.21;104667;1251;94615;-80
2024/03/08 04:47:14;;;;;;;77.50;47.60;;;;;;;-0.36;69.59;100873.33;103548;1256;138829;-79
2024/03/08 04:49:41;;;;;;;78.80;47.90;;;;;;;-0.34;69.83;100875.77;103589;1252;108472;-79
2024/03/08 04:52:09;;;;;;;79.40;46.80;;;;;;;-0.33;70.03;100874.27;103872;1253;96456;-79
2024/03/08 04:54:36;;;;;;;76.40;45.60;;;;;;;-0.28;69.93;100874.69;103647;1255;138906;-81
2024/03/08 04:57:04;;;;;;;74.80;44.70;;;;;;;-0.25;70.02;100872.01;103609;1253;96520;-81
2024/03/08 04:59:35;;;;;;;75.60;45.60;;;;;;;-0.19;69.93;100877.27;103459;1252;138451;-81
2024/03/08 05:02:03;;;;;;;74.40;45.00;;;;;;;-0.15;70.05;100876.87;103398;1257;108716;-81
2024/03/08 05:04:30;;;;;;;77.70;46.20;;;;;;;-0.12;70.03;100880.36;103408;1254;138492;-81
2024/03/08 05:06:57;;;;;;;70.60;45.20;;;;;;;-0.08;69.91;100881.12;103554;1254;108548;-79
2024/03/08 05:09:24;;;;;;;72.00;44.20;;;;;;;-0.04;69.94;100878.63;103556;1251;96505;-80
2024/03/08 05:11:51;;;;;;;71.00;43.50;;;;;;;0.00;69.93;100880.08;103746;1251;139372;-80
2024/03/08 05:14:19;;;;;;;74.30;43.90;;;;;;;0.07;69.75;100882.80;103711;1254;107098;-82
2024/03/08 05:16:48;;;;;;;70.30;43.60;;;;;;;0.11;69.60;100878.41;103940;1251;139709;-81
2024/03/08 05:19:17;;;;;;;69.50;43.00;;;;;;;0.14;69.72;100876.25;103597;1253;109651;-82
2024/03/08 05:21:44;;;;;;;67.30;41.30;;;;;;;0.19;69.63;100879.11;103777;1254;96457;-80
2024/03/08 05:24:11;;;;;;;69.40;42.90;;;;;;;0.30;69.61;100878.29;103516;1250;138258;-79
2024/03/08 05:26:38;;;;;;;72.80;43.20;;;;;;;0.42;69.54;100881.42;104072;1251;107450;-79
2024/03/08 05:29:05;;;;;;;71.50;43.00;;;;;;;0.55;69.52;100875.00;103506;1253;138565;-80
2024/03/08 05:31:39;;;;;;;69.60;42.80;;;;;;;0.69;69.12;100871.33;103517;1253;107259;-81
2024/03/08 05:34:10;;;;;;;72.40;44.00;;;;;;;0.89;68.92;100874.73;103615;1255;96532;-80
2024/03/08 05:36:37;;;;;;;74.00;46.70;;;;;;;1.13;68.37;100876.17;103628;1252;137549;-81
2024/03/08 05:39:06;;;;;;;79.60;48.70;;;;;;;1.44;67.73;100874.42;103534;1251;108832;-80
2024/03/08 05:41:33;;;;;;;78.90;47.00;;;;;;;1.84;67.28;100875.00;104639;1252;137598;-79
2024/03/08 05:44:00;;;;;;;71.20;45.30;;;;;;;2.36;66.89;100868.95;104489;1252;107448;-78
2024/03/08 05:46:27;;;;;;;67.70;46.90;;;;;;;2.90;66.30;100867.25;102772;1254;1003481;-77
2024/03/08 05:48:54;;;;;;;74.20;48.90;;;;;;;3.22;66.05;100866.31;103705;1251;109091;-79
2024/03/08 05:51:21;;;;;;;71.60;46.90;;;;;;;3.34;65.37;100868.13;104698;1252;107038;-80
2024/03/08 05:53:48;;;;;;;70.10;46.60;;;;;;;3.53;64.97;100867.05;102246;1251;1003777;-80
2024/03/08 05:56:16;;;;;;;70.40;47.60;;;;;;;3.78;64.35;100864.45;104430;1251;107411;-78
2024/03/08 05:58:44;;;;;;;71.00;47.60;;;;;;;4.10;64.15;100860.64;103370;1253;139287;-80
2024/03/08 06:01:12;;;;;;;65.60;47.50;;;;;;;4.47;63.58;100861.80;104008;1254;109050;-78
2024/03/08 06:03:44;;;;;;;67.90;47.10;;;;;;;4.88;62.61;100862.55;104063;1253;108194;-72
2024/03/08 06:06:11;;;;;;;66.30;45.40;;;;;;;5.36;61.63;100863.92;103842;1251;140082;-84
2024/03/08 06:08:38;;;;;;;70.70;47.00;;;;;;;5.90;60.45;100860.03;103487;1254;108438;-83
2024/03/08 06:11:06;;;;;;;60.00;45.10;;;;;;;6.55;59.24;100860.77;103677;1251;139379;-80
2024/03/08 06:13:33;;;;;;;60.00;43.60;;;;;;;7.29;57.75;100857.64;104814;1252;109876;-84
2024/03/08 06:16:01;;;;;;;64.50;43.50;;;;;;;8.12;56.36;100854.49;104817;1251;106820;-84
2024/03/08 06:18:27;;;;;;;56.40;43.00;;;;;;;9.04;54.84;100854.77;104740;1251;138559;-83
2024/03/08 06:20:55;;;;;;;61.30;44.50;;;;;;;10.14;53.74;100847.20;103606;1252;108108;-83
2024/03/08 06:23:22;;;;;;;60.10;42.80;;;;;;;11.36;52.48;100844.87;104426;1251;137747;-82
2024/03/08 06:25:50;;;;;;;54.50;43.20;;;;;;;12.72;51.23;100839.80;104814;1251;109125;-84
2024/03/08 06:28:17;;;;;;;58.60;42.30;;;;;;;14.13;50.03;100834.58;104789;1253;107873;-82
2024/03/08 06:30:44;;;;;;;56.60;41.70;;;;;;;15.46;48.40;100831.52;104460;1251;137653;-77
2024/03/08 06:33:11;;;;;;;47.80;40.20;;;;;;;16.69;46.69;100830.51;103880;1253;107362;-82
2024/03/08 06:35:38;;;;;;;51.70;39.90;;;;;;;17.80;44.89;100822.66;103694;1251;138124;-83
2024/03/08 06:38:06;;;;;;;50.80;40.00;;;;;;;18.78;43.50;100821.84;103550;1253;109282;-80
2024/03/08 06:40:32;;;;;;;53.20;42.00;;;;;;;19.70;42.12;100820.86;103357;1251;138155;-76
2024/03/08 06:42:59;;;;;;;49.10;41.10;;;;;;;20.57;40.88;100817.34;103485;1253;96427;-82
2024/03/08 06:45:26;;;;;;;53.80;40.20;;;;;;;21.42;39.74;100815.00;103780;1251;107785;-77
2024/03/08 06:47:54;;;;;;;49.70;39.20;;;;;;;22.15;38.30;100812.79;103754;1253;137933;-81
2024/03/08 06:50:22;;;;;;;52.10;39.90;;;;;;;22.77;37.14;100813.98;104385;1251;109878;-79
2024/03/08 06:52:53;;;;;;;48.20;37.60;;;;;;;23.37;36.04;100814.20;103606;1253;138131;-77
2024/03/08 06:55:21;;;;;;;46.30;37.40;;;;;;;23.91;34.93;100814.50;103747;1251;96482;-79
2024/03/08 06:57:48;;;;;;;42.80;36.90;;;;;;;24.47;34.48;100814.02;103577;1254;108247;-83
2024/03/08 07:00:20;;;;;;;51.00;37.30;;;;;;;24.98;33.69;100803.48;103291;1253;138543;-81
2024/03/08 07:02:48;;;;;;;45.90;34.50;;;;;;;25.52;32.66;100806.95;104785;1253;109692;-80
2024/03/08 07:05:16;;;;;;;42.90;32.40;;;;;;;25.85;31.78;100804.98;103853;1253;137872;-80
2024/03/08 07:07:44;;;;;;;36.40;31.10;;;;;;;26.11;31.01;100803.19;103523;1253;96448;-81
2024/03/08 07:10:14;;;;;;;39.70;30.50;;;;;;;26.34;29.98;100800.42;103782;1251;107748;-78
2024/03/08 07:12:42;;;;;;;36.70;30.70;;;;;;;26.46;29.44;100802.61;103588;1253;138495;-80
2024/03/08 07:15:13;;;;;;;35.90;29.70;;;;;;;26.74;28.90;100800.36;103830;1252;110923;-80
2024/03/08 07:17:40;;;;;;;32.70;27.30;;;;;;;27.06;28.61;100800.15;103354;1253;137914;-79
2024/03/08 07:20:12;;;;;;;35.90;27.00;;;;;;;27.46;28.48;100798.52;103513;1253;96975;-79
2024/03/08 07:22:39;;;;;;;33.10;28.40;;;;;;;27.89;27.85;100796.60;103615;1253;137957;-81
2024/03/08 07:25:19;;;;;;;28.70;24.40;;;;;;;28.31;27.59;100797.34;103596;1255;96490;-82
2024/03/08 07:27:46;;;;;;;26.00;21.50;;;;;;;28.74;27.08;100791.47;103955;1252;108990;-82
2024/03/08 07:30:51;;;;;;;26.60;21.70;;;;;;;29.14;26.71;100793.32;103368;1252;137898;-82
2024/03/08 07:33:03;;;;;;;29.70;20.80;;;;;;;29.52;26.60;100791.19;103636;1252;96630;-77
2024/03/08 07:35:31;;;;;;;21.80;19.10;;;;;;;29.84;26.20;100785.18;103461;1252;137794;-79
2024/03/08 07:37:59;;;;;;;24.30;19.40;;;;;;;30.22;25.61;100788.89;103567;1253;97052;-82
2024/03/08 07:40:27;;;;;;;22.90;18.00;;;;;;;30.55;25.29;100792.49;103585;1254;109304;-82
2024/03/08 07:42:54;;;;;;;23.40;17.70;;;;;;;30.81;24.94;100789.55;103508;1251;107438;-81
2024/03/08 07:45:21;;;;;;;31.60;18.20;;;;;;;31.00;24.52;100790.56;103494;1253;96469;-81
2024/03/08 07:47:49;;;;;;;27.10;18.40;;;;;;;31.12;24.13;100789.89;103413;1252;138128;-82
2024/03/08 07:50:16;;;;;;;24.80;18.90;;;;;;;31.29;23.90;100789.84;103465;1254;96347;-84
2024/03/08 07:52:43;;;;;;;24.10;18.60;;;;;;;31.43;23.70;100791.34;103448;1253;137921;-77
2024/03/08 07:55:11;;;;;;;27.00;18.60;;;;;;;31.75;23.44;100790.02;103485;1253;108096;-76
2024/03/08 07:57:40;;;;;;;22.10;18.30;;;;;;;31.98;23.01;100787.46;103544;1251;96426;-77
2024/03/08 08:00:08;;;;;;;29.30;19.90;;;;;;;32.12;22.75;100784.52;103420;1251;136880;-77
2024/03/08 08:02:36;;;;;;;30.00;19.70;;;;;;;32.20;22.43;100778.41;104530;1251;94805;-78
2024/03/08 08:05:09;;;;;;;22.60;18.50;;;;;;;32.32;22.39;100777.20;103394;1250;138098;-83
2024/03/08 08:07:36;;;;;;;23.20;17.90;;;;;;;32.36;21.98;100777.86;104030;1251;100147;-81
2024/03/08 08:10:05;;;;;;;22.00;17.40;;;;;;;32.38;21.88;100776.55;103576;1251;96342;-80
2024/03/08 08:12:34;;;;;;;22.80;17.20;;;;;;;32.43;21.45;100775.73;103511;1254;137697;-78
2024/03/08 08:15:01;;;;;;;22.10;16.30;;;;;;;32.07;20.91;100774.19;103656;1255;96551;-79
2024/03/08 08:17:28;;;;;;;19.60;16.60;;;;;;;31.83;20.94;100778.58;103510;1250;138742;-77
2024/03/08 08:19:55;;;;;;;20.50;16.60;;;;;;;31.76;20.85;100774.30;103497;1251;99167;-80
2024/03/08 08:22:22;;;;;;;21.10;16.10;;;;;;;31.74;21.02;100773.08;103494;1251;96553;-77
2024/03/08 08:24:50;;;;;;;22.30;17.10;;;;;;;31.88;21.05;100772.89;103884;1253;107917;-76
2024/03/08 08:27:17;;;;;;;18.30;15.60;;;;;;;32.05;20.73;100767.59;103938;1250;96469;-78
2024/03/08 08:29:46;;;;;;;21.30;15.70;;;;;;;32.15;20.64;100765.02;103197;1250;137706;-76
2024/03/08 08:32:12;;;;;;;22.50;15.70;;;;;;;32.01;20.13;100766.90;103576;1251;99583;-77
2024/03/08 08:34:39;;;;;;;19.30;15.80;;;;;;;31.73;20.13;100769.77;103282;1252;137708;-76
2024/03/08 08:37:08;;;;;;;18.50;15.30;;;;;;;31.57;20.17;100764.98;103512;1251;100489;-76
2024/03/08 08:39:34;;;;;;;19.70;15.40;;;;;;;31.48;19.93;100767.58;104801;1251;94315;-75
2024/03/08 08:42:02;;;;;;;20.20;14.80;;;;;;;31.54;20.42;100760.95;103557;1251;138241;-76
2024/03/08 08:44:31;;;;;;;17.40;15.20;;;;;;;31.57;20.12;100757.77;104223;1250;108407;-77
2024/03/08 08:46:58;;;;;;;17.00;14.30;;;;;;;31.53;20.30;100757.31;103597;1251;138543;-75
2024/03/08 08:49:38;;;;;;;22.30;16.10;;;;;;;31.58;20.19;100757.63;103565;1250;107530;-75
2024/03/08 08:52:05;;;;;;;16.90;14.30;;;;;;;31.44;19.76;100755.82;104155;1250;96496;-76
2024/03/08 08:54:42;;;;;;;18.10;15.20;;;;;;;31.19;19.47;100754.77;104518;1252;138548;-74
2024/03/08 08:57:08;;;;;;;18.70;15.00;;;;;;;30.95;19.51;100749.80;104042;1249;100553;-74
2024/03/08 08:59:36;;;;;;;19.00;14.30;;;;;;;30.88;19.63;100752.63;103875;1251;137729;-73
2024/03/08 09:02:03;;;;;;;18.60;14.90;;;;;;;30.92;19.35;100749.23;103547;1250;109530;-72
2024/03/08 09:04:31;;;;;;;16.50;13.70;;;;;;;30.78;19.37;100749.16;103598;1253;138362;-75
2024/03/08 09:06:58;;;;;;;16.90;14.00;;;;;;;30.79;19.28;100748.62;103917;1250;109334;-77
2024/03/08 09:09:26;;;;;;;16.80;14.40;;;;;;;30.65;19.43;100752.21;103854;1251;108614;-76
2024/03/08 09:11:54;;;;;;;16.00;14.30;;;;;;;30.26;18.84;100749.05;103395;1251;137712;-75
2024/03/08 09:14:21;;;;;;;17.90;14.80;;;;;;;29.83;19.29;100747.33;103435;1251;107594;-74
2024/03/08 09:16:48;;;;;;;21.60;14.50;;;;;;;29.57;19.61;100744.73;103377;1251;138141;-81
2024/03/08 09:19:15;;;;;;;23.50;15.90;;;;;;;29.60;19.57;100748.26;103565;1255;110593;-78
2024/03/08 09:21:42;;;;;;;18.00;15.40;;;;;;;29.74;19.89;100742.49;103618;1255;107510;-80
2024/03/08 09:24:10;;;;;;;20.10;15.90;;;;;;;29.89;19.78;100737.68;103547;1249;137661;-77
2024/03/08 09:26:37;;;;;;;19.70;14.90;;;;;;;29.82;19.81;100736.02;104714;1253;108038;-79
2024/03/08 09:29:05;;;;;;;19.10;16.60;;;;;;;29.74;19.59;100736.20;103520;1251;137980;-79
2024/03/08 09:31:32;;;;;;;21.20;16.00;;;;;;;29.82;19.57;100740.96;103707;1254;109594;-78
2024/03/08 09:33:59;;;;;;;19.50;15.90;;;;;;;29.65;19.26;100737.92;103609;1250;109298;-76
2024/03/08 09:36:27;;;;;;;20.80;15.40;;;;;;;29.53;19.67;100732.91;103465;1251;137775;-76
2024/03/08 09:38:54;;;;;;;17.70;15.80;;;;;;;29.51;19.86;100732.64;103735;1251;108588;-78
2024/03/08 09:41:21;;;;;;;16.70;14.90;;;;;;;29.50;19.78;100728.73;103467;1253;137906;-79
2024/03/08 09:43:48;;;;;;;22.90;15.90;;;;;;;29.56;19.81;100726.00;103546;1253;108861;-78
2024/03/08 09:46:17;;;;;;;21.40;15.80;;;;;;;29.52;19.70;100724.38;103609;1251;110370;-77
2024/03/08 09:48:46;;;;;;;17.90;14.30;;;;;;;29.13;19.32;100732.20;103504;1251;138214;-80
2024/03/08 09:51:15;;;;;;;19.00;14.10;;;;;;;28.67;19.40;100731.14;103585;1254;107365;-78
2024/03/08 09:53:42;;;;;;;21.50;14.10;;;;;;;28.74;19.81;100733.85;103686;1250;136522;-78
2024/03/08 09:56:09;;;;;;;20.00;14.20;;;;;;;28.98;19.92;100733.20;103667;1255;110765;-79
2024/03/08 09:58:53;;;;;;;18.10;14.30;;;;;;;29.12;19.77;100726.77;103519;1252;137273;-77
2024/03/08 10:01:21;;;;;;;19.50;14.40;;;;;;;29.09;19.35;100727.45;103606;1253;96477;-78
2024/03/08 10:03:50;;;;;;;18.00;13.90;;;;;;;29.05;19.66;100725.16;103589;1255;107588;-77
2024/03/08 10:06:17;;;;;;;17.40;13.20;;;;;;;29.04;19.66;100726.86;103708;1250;137976;-78
2024/03/08 10:08:43;;;;;;;19.70;14.70;;;;;;;28.98;19.57;100722.70;103552;1250;109578;-80
2024/03/08 10:11:12;;;;;;;21.50;14.10;;;;;;;28.89;19.60;100728.02;103531;1250;137747;-81
2024/03/08 10:13:41;;;;;;;15.80;14.10;;;;;;;28.65;19.52;100727.63;103616;1256;96476;-74
2024/03/08 10:16:08;;;;;;;19.60;14.10;;;;;;;28.57;19.76;100727.14;103627;1253;108711;-76
2024/03/08 10:18:36;;;;;;;18.40;14.40;;;;;;;28.60;19.69;100724.54;103509;1250;139101;-76
2024/03/08 10:21:10;;;;;;;106.70;19.00;;;;;;;28.43;19.63;100723.50;103770;1253;136740;-77
2024/03/08 10:23:37;;;;;;;67.60;15.10;;;;;;;28.39;19.66;100719.29;103829;1253;137894;-81
2024/03/08 10:26:15;;;;;;;58.50;15.70;;;;;;;28.33;19.55;100711.46;103574;1251;96325;-82
2024/03/08 10:28:43;;;;;;;21.10;13.40;;;;;;;28.26;19.62;100713.20;103720;1249;137937;-78
2024/03/08 10:31:10;;;;;;;18.40;13.70;;;;;;;27.98;19.57;100712.98;103653;1253;96491;-77
2024/03/08 10:33:39;;;;;;;17.80;14.30;;;;;;;27.64;19.55;100706.94;103664;1251;109920;-78
2024/03/08 10:36:09;;;;;;;16.10;14.00;;;;;;;27.41;19.49;100704.52;103644;1250;137876;-68
2024/03/08 10:38:38;;;;;;;22.40;13.20;;;;;;;27.23;19.99;100703.98;103888;1253;96511;-68
2024/03/08 10:41:06;;;;;;;17.80;13.80;;;;;;;26.93;19.88;100703.91;103957;1250;137918;-68
2024/03/08 10:43:43;;;;;;;18.90;13.80;;;;;;;26.59;20.09;100708.88;104187;1250;96459;-67
2024/03/08 10:46:23;;;;;;;16.40;13.70;;;;;;;26.32;20.37;100703.23;103596;1253;109331;-68
2024/03/08 10:48:53;;;;;;;17.00;12.80;;;;;;;26.18;20.81;100702.75;103542;1254;108279;-66
2024/03/08 10:51:22;;;;;;;18.70;14.40;;;;;;;26.13;20.83;100701.23;103507;1251;96453;-68
2024/03/08 10:53:51;;;;;;;95.90;19.60;;;;;;;25.86;20.80;100700.11;103433;1251;138290;-67
2024/03/08 10:56:17;;;;;;;94.00;20.40;;;;;;;25.76;21.29;100700.96;103521;1250;96414;-67
2024/03/08 10:58:45;;;;;;;58.90;17.70;;;;;;;25.77;21.67;100700.17;103257;1250;138171;-67
2024/03/08 11:01:12;;;;;;;32.20;15.00;;;;;;;25.74;21.54;100697.58;103330;1252;108405;-67
2024/03/08 11:03:53;;;;;;;42.10;17.50;;;;;;;25.64;21.32;100693.30;103423;1251;96730;-67